Time;durP1;ratioP1;P1;durP2;ratioP2;P2;SDS_P1;SDS_P2;PMS_P1;PMS_P2;Temp;Humidity;BMP_temperature;BMP_pressure;BME280_temperature;BME280_humidity;BME280_pressure;Samples;Min_cycle;Max_cycle;Signal;HPM_P1;HPM_P2
2022/05/23 00:02:18;;;;;;;6.67;4.30;;;;;;;12.53;62.79;98351.81;1696328;84;28372;-56
2022/05/23 00:04:46;;;;;;;9.90;4.30;;;;;;;12.48;62.73;98351.44;1696221;84;25656;-60
2022/05/23 00:07:19;;;;;;;6.05;3.92;;;;;;;12.52;62.78;98363.95;1696326;84;25632;-60
2022/05/23 00:09:45;;;;;;;6.50;3.90;;;;;;;12.52;62.77;98354.33;1695496;84;25804;-61
2022/05/23 00:12:11;;;;;;;5.72;4.12;;;;;;;12.52;62.65;98358.45;1696455;84;25697;-61
2022/05/23 00:14:37;;;;;;;8.70;4.05;;;;;;;12.50;62.60;98357.41;1696139;84;29505;-61
2022/05/23 00:17:04;;;;;;;8.50;4.50;;;;;;;12.46;62.72;98354.30;1695985;84;27118;-59
2022/05/23 00:19:30;;;;;;;6.87;4.50;;;;;;;12.40;62.87;98355.03;1702231;84;25628;-60
2022/05/23 00:21:57;;;;;;;10.95;6.65;;;;;;;12.30;63.08;98348.79;1703476;84;26817;-60
2022/05/23 00:24:22;;;;;;;14.15;7.05;;;;;;;12.22;63.20;98356.53;1703505;84;25614;-61
2022/05/23 00:26:51;;;;;;;11.65;6.10;;;;;;;12.14;63.31;98349.95;1703520;84;27494;-61
2022/05/23 00:29:19;;;;;;;10.10;5.58;;;;;;;12.08;63.52;98360.88;1703313;84;25654;-61
2022/05/23 00:37:16;;;;;;;5.30;3.67;;;;;;;11.87;64.07;98360.80;1703100;84;25579;-60
2022/05/23 00:39:42;;;;;;;5.28;4.28;;;;;;;11.84;64.07;98362.27;1703567;84;27445;-60
2022/05/23 00:44:41;;;;;;;8.10;4.95;;;;;;;11.65;64.45;98360.72;1639012;87;25743;-60
2022/05/23 00:47:22;;;;;;;8.03;5.20;;;;;;;11.59;64.59;98368.89;1638928;87;25794;-56
2022/05/23 00:49:49;;;;;;;8.18;4.78;;;;;;;11.52;64.93;98366.64;1638918;87;25563;-57
2022/05/23 00:52:35;;;;;;;7.00;4.97;;;;;;;11.39;65.12;98361.60;1639040;87;27445;-57
2022/05/23 00:55:06;;;;;;;8.43;5.45;;;;;;;11.33;65.22;98367.02;1639122;87;25774;-56
2022/05/23 00:57:37;;;;;;;8.93;5.37;;;;;;;11.28;65.47;98362.51;1639394;87;25549;-56
2022/05/23 01:00:06;;;;;;;;;;;;;;;11.21;65.60;98366.33;1642048;87;25746;-56
2022/05/23 01:02:32;;;;;;;8.68;5.05;;;;;;;11.12;65.92;98366.34;1639358;87;25722;-58
2022/05/23 01:04:58;;;;;;;10.63;6.17;;;;;;;11.04;66.06;98369.89;1639073;87;29604;-56
2022/05/23 01:07:24;;;;;;;23.38;10.78;;;;;;;10.98;66.19;98376.66;1617360;87;25693;-55
2022/05/23 01:09:51;;;;;;;25.37;11.45;;;;;;;10.92;66.23;98369.17;1639332;87;25711;-57
2022/05/23 01:12:18;;;;;;;30.60;12.73;;;;;;;10.92;66.19;98369.17;1639386;87;25764;-54
2022/05/23 01:14:51;;;;;;;24.37;10.98;;;;;;;10.94;66.34;98371.59;1639174;87;25738;-56
2022/05/23 01:17:22;;;;;;;7.75;4.72;;;;;;;10.95;66.38;98369.08;1639184;87;27651;-56
2022/05/23 01:19:49;;;;;;;7.45;4.33;;;;;;;10.92;66.55;98373.28;1634668;87;25537;-56
2022/05/23 01:23:07;;;;;;;8.65;6.08;;;;;;;10.89;66.58;98368.45;1666014;84;25551;-56
2022/05/23 01:25:41;;;;;;;15.95;7.95;;;;;;;10.85;66.68;98373.76;1694899;84;25896;-56
2022/05/23 01:28:07;;;;;;;15.53;8.00;;;;;;;10.86;66.66;98362.23;1694977;84;25734;-56
2022/05/23 01:30:36;;;;;;;20.08;9.60;;;;;;;10.83;66.73;98371.92;1694890;84;27486;-60
2022/05/23 01:33:04;;;;;;;14.33;7.95;;;;;;;10.79;66.85;98362.71;1694613;84;25663;-59
2022/05/23 01:35:31;;;;;;;14.50;6.75;;;;;;;10.79;66.84;98364.08;1694959;84;25675;-58
2022/05/23 01:37:58;;;;;;;10.78;5.97;;;;;;;10.77;66.97;98359.50;1694862;84;25799;-59
2022/05/23 01:40:24;;;;;;;11.85;6.45;;;;;;;10.69;67.20;98356.19;1694963;84;25673;-60
2022/05/23 01:42:51;;;;;;;8.13;5.83;;;;;;;10.63;67.27;98351.44;1695050;84;27424;-60
2022/05/23 01:45:24;;;;;;;8.65;5.50;;;;;;;10.50;67.36;98351.81;1694939;84;25682;-60
2022/05/23 01:47:51;;;;;;;7.72;5.08;;;;;;;10.35;67.54;98355.80;1694966;84;25779;-60
2022/05/23 01:50:17;;;;;;;9.25;5.00;;;;;;;10.27;67.69;98343.14;1695018;84;25845;-59
2022/05/23 01:52:43;;;;;;;7.70;5.17;;;;;;;10.28;67.84;98348.86;1694973;84;25552;-60
2022/05/23 01:55:10;;;;;;;7.95;4.80;;;;;;;10.30;67.77;98345.80;1695101;84;27603;-60
2022/05/23 01:57:36;;;;;;;7.40;3.85;;;;;;;10.27;67.70;98344.52;1694792;84;25614;-60
2022/05/23 02:02:50;;;;;;;6.78;4.10;;;;;;;10.14;67.92;98344.09;1694737;84;25733;-59
2022/05/23 02:05:18;;;;;;;5.15;4.08;;;;;;;10.12;68.01;98344.41;1695114;84;25483;-60
2022/05/23 02:07:44;;;;;;;7.65;4.03;;;;;;;10.14;68.01;98348.20;1695177;84;27631;-55
2022/05/23 02:10:13;;;;;;;5.87;4.08;;;;;;;10.11;67.97;98338.70;1694924;84;25611;-57
2022/05/23 02:12:42;;;;;;;6.90;4.62;;;;;;;10.09;68.21;98340.12;1694925;84;25517;-56
2022/05/23 02:15:17;;;;;;;11.08;4.80;;;;;;;9.95;68.21;98338.87;1694883;84;26698;-59
2022/05/23 02:17:47;;;;;;;6.70;3.80;;;;;;;9.84;68.64;98332.32;1694666;84;25898;-59
2022/05/23 02:20:16;;;;;;;7.72;4.50;;;;;;;9.83;68.69;98337.56;1695496;84;27536;-60
2022/05/23 02:22:50;;;;;;;7.92;4.47;;;;;;;9.71;68.94;98340.90;1696311;84;25746;-59
2022/05/23 02:25:24;;;;;;;7.30;5.42;;;;;;;9.61;69.17;98337.87;1696189;84;25489;-58
2022/05/23 02:27:53;;;;;;;6.00;4.62;;;;;;;9.55;69.03;98341.86;1696143;84;25746;-56
2022/05/23 02:30:26;;;;;;;6.10;4.33;;;;;;;9.50;69.23;98336.55;1696484;84;25706;-56
2022/05/23 02:32:57;;;;;;;5.72;4.42;;;;;;;9.51;69.25;98335.41;1696137;84;28850;-57
2022/05/23 02:35:31;;;;;;;7.87;5.40;;;;;;;9.48;69.17;98334.13;1696069;84;25618;-59
2022/05/23 02:38:02;;;;;;;6.50;4.65;;;;;;;9.49;69.55;98330.81;1696247;84;25635;-57
2022/05/23 02:40:31;;;;;;;5.42;4.10;;;;;;;9.54;69.38;98328.77;1696330;84;26627;-56
2022/05/23 02:42:57;;;;;;;6.75;4.83;;;;;;;9.52;69.43;98329.63;1696257;84;25462;-57
2022/05/23 02:45:23;;;;;;;9.03;6.03;;;;;;;9.53;69.61;98330.45;1696427;84;27515;-56
2022/05/23 02:47:49;;;;;;;10.60;6.10;;;;;;;9.52;69.74;98328.27;1696067;84;25646;-58
2022/05/23 02:50:16;;;;;;;8.45;5.83;;;;;;;9.52;69.82;98332.92;1696691;84;25445;-57
2022/05/23 02:52:44;;;;;;;7.05;5.10;;;;;;;9.49;69.85;98330.26;1696135;84;26628;-55
2022/05/23 02:55:11;;;;;;;8.43;5.33;;;;;;;9.46;70.03;98335.54;1696327;84;25492;-55
2022/05/23 02:57:38;;;;;;;8.38;5.42;;;;;;;9.44;70.19;98336.44;1696356;84;27466;-59
2022/05/23 03:00:07;;;;;;;8.13;5.70;;;;;;;9.42;70.19;98339.48;1696133;84;25604;-56
2022/05/23 03:05:18;;;;;;;8.15;5.58;;;;;;;9.37;70.38;98345.07;1696109;84;25623;-59
2022/05/23 03:07:45;;;;;;;7.00;5.00;;;;;;;9.38;70.40;98348.05;1696500;84;25706;-59
2022/05/23 03:10:12;;;;;;;8.90;5.60;;;;;;;9.40;70.37;98347.18;1696319;84;27794;-57
2022/05/23 03:12:38;;;;;;;8.00;5.37;;;;;;;9.44;70.67;98342.69;1696282;84;25904;-56
2022/05/23 03:15:06;;;;;;;9.78;5.22;;;;;;;9.49;70.60;98354.06;1696401;84;25468;-59
2022/05/23 03:17:32;;;;;;;11.68;6.65;;;;;;;9.52;70.90;98350.70;1696293;84;25625;-59
2022/05/23 03:19:59;;;;;;;7.97;5.47;;;;;;;9.54;70.96;98352.56;1700573;84;25520;-60
2022/05/23 03:28:06;;;;;;;8.05;5.22;;;;;;;9.58;71.06;98356.86;1703144;84;25568;-60
2022/05/23 03:30:38;;;;;;;8.05;5.50;;;;;;;9.57;71.20;98349.75;1703417;84;25745;-57
2022/05/23 03:33:11;;;;;;;11.65;6.15;;;;;;;9.58;71.22;98356.28;1703191;84;25441;-55
2022/05/23 03:35:43;;;;;;;9.53;6.55;;;;;;;9.57;71.58;98358.78;1703480;84;27473;-57
2022/05/23 03:38:12;;;;;;;12.90;7.15;;;;;;;9.55;72.23;98359.64;1703032;84;25476;-54
2022/05/23 03:40:42;;;;;;;11.75;7.30;;;;;;;9.62;71.99;98367.41;1703427;84;25738;-59
2022/05/23 03:43:14;;;;;;;12.00;6.78;;;;;;;9.71;71.95;98368.27;1703629;84;25760;-59
2022/05/23 03:45:45;;;;;;;9.15;6.37;;;;;;;9.86;71.98;98375.80;1703528;84;25656;-59
2022/05/23 03:48:12;;;;;;;;;;;;;;;10.01;71.86;98382.22;1706071;84;28188;-59
2022/05/23 03:50:39;;;;;;;10.85;6.78;;;;;;;10.21;71.68;98384.68;1703046;84;25622;-59
2022/05/23 03:53:07;;;;;;;10.95;6.75;;;;;;;10.38;71.55;98381.18;1703390;84;25695;-60
2022/05/23 03:55:33;;;;;;;9.45;6.75;;;;;;;10.49;71.47;98390.75;1703386;84;25832;-57
2022/05/23 03:57:59;;;;;;;9.70;6.12;;;;;;;10.62;71.77;98386.83;1703378;84;25725;-55
2022/05/23 04:00:26;;;;;;;9.18;6.12;;;;;;;10.74;71.26;98393.03;1703502;84;26902;-55
2022/05/23 04:02:52;;;;;;;8.28;6.03;;;;;;;10.83;71.28;98398.52;1703298;84;25469;-56
2022/05/23 04:05:18;;;;;;;7.90;6.55;;;;;;;10.93;71.25;98391.92;1703419;84;25632;-56
2022/05/23 04:07:45;;;;;;;9.85;6.22;;;;;;;11.02;71.65;98396.81;1703634;84;25917;-56
2022/05/23 04:10:16;;;;;;;9.55;6.42;;;;;;;11.14;71.24;98401.67;1703416;84;25637;-57
2022/05/23 04:12:43;;;;;;;12.23;6.22;;;;;;;11.22;71.07;98392.61;1703492;84;27392;-57
2022/05/23 04:15:12;;;;;;;10.30;6.10;;;;;;;11.29;70.32;98397.03;1703475;84;25696;-59
2022/05/23 04:17:38;;;;;;;13.28;7.17;;;;;;;11.29;70.12;98393.50;1703338;84;25645;-55
2022/05/23 04:20:08;;;;;;;8.90;6.47;;;;;;;11.31;70.27;98390.44;1703164;84;26585;-55
2022/05/23 04:22:36;;;;;;;7.97;6.12;;;;;;;11.34;70.40;98394.69;1703167;84;25701;-60
2022/05/23 04:25:10;;;;;;;9.45;6.40;;;;;;;11.40;70.39;98398.08;1703452;84;27446;-60
2022/05/23 04:27:36;;;;;;;9.15;6.10;;;;;;;11.52;70.21;98389.97;1703452;84;25711;-60
2022/05/23 04:30:05;;;;;;;9.35;6.37;;;;;;;11.64;69.66;98392.05;1703769;84;25468;-60
2022/05/23 04:35:16;;;;;;;8.80;6.33;;;;;;;12.04;69.15;98381.30;1703146;84;25664;-60
2022/05/23 04:37:50;;;;;;;8.75;6.75;;;;;;;12.25;67.93;98381.16;1703025;84;27379;-61
2022/05/23 04:40:21;;;;;;;10.58;6.80;;;;;;;12.33;68.09;98383.61;1703398;84;26113;-61
2022/05/23 04:42:48;;;;;;;9.20;7.00;;;;;;;12.47;67.95;98377.31;1702620;84;25459;-60
2022/05/23 04:45:16;;;;;;;7.97;5.42;;;;;;;12.58;67.73;98376.33;1703359;84;25855;-60
2022/05/23 04:50:27;;;;;;;10.90;6.20;;;;;;;12.58;66.58;98374.17;1703164;84;25672;-61
2022/05/23 04:52:56;;;;;;;8.40;6.00;;;;;;;12.52;66.62;98374.36;1703215;84;25641;-60
2022/05/23 04:55:22;;;;;;;7.72;5.60;;;;;;;12.53;66.65;98369.67;1703248;84;25638;-59
2022/05/23 04:57:48;;;;;;;9.08;6.47;;;;;;;12.50;66.45;98368.97;1703394;84;25863;-59
2022/05/23 05:00:19;;;;;;;9.13;6.25;;;;;;;12.52;66.87;98372.20;1703179;84;25665;-57
2022/05/23 05:02:48;;;;;;;8.65;5.95;;;;;;;12.51;66.22;98382.38;1703513;84;28263;-57
2022/05/23 05:05:16;;;;;;;9.45;6.10;;;;;;;12.53;66.32;98381.45;1703273;84;25722;-61
2022/05/23 05:07:43;;;;;;;8.18;5.12;;;;;;;12.63;66.32;98383.02;1703088;84;25713;-60
2022/05/23 05:10:10;;;;;;;8.65;5.80;;;;;;;12.67;65.28;98385.33;1703039;84;25773;-57
2022/05/23 05:12:37;;;;;;;7.70;5.67;;;;;;;12.64;65.37;98390.11;1703425;84;25456;-60
2022/05/23 05:15:05;;;;;;;7.40;5.85;;;;;;;12.71;65.56;98387.41;1703475;84;27401;-60
2022/05/23 05:17:32;;;;;;;8.20;5.92;;;;;;;12.80;65.06;98390.89;1703363;84;25727;-61
2022/05/23 05:19:58;;;;;;;7.90;6.30;;;;;;;12.90;64.81;98391.08;1698737;84;25665;-62
2022/05/23 05:22:24;;;;;;;9.68;6.17;;;;;;;12.99;64.51;98397.88;1690396;84;25872;-59
2022/05/23 05:24:50;;;;;;;8.78;6.37;;;;;;;13.04;64.09;98393.55;1690078;84;25461;-61
2022/05/23 05:27:16;;;;;;;7.92;5.90;;;;;;;13.12;64.65;98398.16;1689940;84;27434;-58
2022/05/23 05:29:42;;;;;;;9.75;7.10;;;;;;;13.25;63.91;98404.53;1690271;84;25438;-58
2022/05/23 05:32:23;;;;;;;11.83;5.97;;;;;;;13.48;63.79;98401.95;1690154;84;25521;-58
2022/05/23 05:34:55;;;;;;;6.40;5.05;;;;;;;13.70;62.90;98405.49;1690371;84;25970;-61
2022/05/23 05:37:29;;;;;;;7.47;4.80;;;;;;;13.82;60.75;98399.20;1690496;84;25694;-60
2022/05/23 05:39:58;;;;;;;8.75;4.90;;;;;;;13.80;60.85;98405.86;1690420;84;28464;-56
2022/05/23 05:42:30;;;;;;;6.87;3.87;;;;;;;13.92;60.17;98406.45;1690573;84;25743;-57
2022/05/23 05:45:02;;;;;;;9.48;4.60;;;;;;;14.14;59.13;98403.59;1690204;84;25630;-57
2022/05/23 05:47:32;;;;;;;8.03;4.80;;;;;;;14.24;59.31;98408.64;1690516;84;25748;-57
2022/05/23 05:50:04;;;;;;;5.95;4.53;;;;;;;14.27;58.55;98409.33;1690730;84;25592;-61
2022/05/23 05:52:33;;;;;;;7.45;4.83;;;;;;;14.24;57.06;98408.64;1690613;84;27388;-61
2022/05/23 05:55:03;;;;;;;6.00;3.92;;;;;;;14.07;57.23;98415.77;1690325;84;25508;-61
2022/05/23 05:57:30;;;;;;;5.87;4.15;;;;;;;14.18;57.02;98410.02;1690404;84;25631;-61
2022/05/23 05:59:57;;;;;;;5.60;3.70;;;;;;;14.24;57.37;98410.02;1690441;84;25693;-61
2022/05/23 06:02:23;;;;;;;4.28;3.40;;;;;;;14.35;57.32;98414.50;1690416;84;25682;-56
2022/05/23 06:04:49;;;;;;;3.42;2.25;;;;;;;14.56;56.35;98416.30;1690625;84;27438;-56
2022/05/23 06:12:59;;;;;;;2.70;1.47;;;;;;;14.54;53.94;98421.38;1690370;84;25631;-56
2022/05/23 06:15:26;;;;;;;4.47;2.85;;;;;;;14.46;52.37;98427.81;1690554;84;25437;-56
2022/05/23 06:17:53;;;;;;;2.87;2.33;;;;;;;14.45;53.40;98421.48;1690388;84;27561;-57
2022/05/23 06:20:23;;;;;;;2.40;2.17;;;;;;;14.64;52.30;98420.91;1695330;84;25574;-56
2022/05/23 06:22:50;;;;;;;4.10;2.85;;;;;;;14.80;51.81;98418.84;1703220;84;25721;-57
2022/05/23 06:25:18;;;;;;;4.70;2.67;;;;;;;14.78;52.61;98408.16;1703442;84;25695;-56
2022/05/23 06:27:45;;;;;;;3.58;2.52;;;;;;;14.78;52.61;98408.16;1703546;84;25616;-57
2022/05/23 06:30:15;;;;;;;3.15;2.40;;;;;;;15.00;51.41;98406.00;1703445;84;28370;-57
2022/05/23 06:32:41;;;;;;;5.35;3.10;;;;;;;14.99;50.93;98401.66;1703600;84;25699;-57
2022/05/23 06:35:10;;;;;;;4.55;2.77;;;;;;;14.98;52.31;98400.05;1703537;84;25633;-58
2022/05/23 06:37:39;;;;;;;5.37;2.60;;;;;;;15.10;50.99;98408.86;1703417;84;25828;-56
2022/05/23 06:40:10;;;;;;;5.17;2.80;;;;;;;15.10;51.28;98403.34;1703454;84;25499;-56
2022/05/23 06:42:37;;;;;;;4.78;2.98;;;;;;;15.18;51.35;98404.35;1703578;84;27416;-57
2022/05/23 06:45:06;;;;;;;5.47;3.17;;;;;;;15.55;50.91;98394.50;1703296;84;25657;-57
2022/05/23 06:47:34;;;;;;;4.60;2.60;;;;;;;15.55;50.91;98394.50;1703396;84;25738;-57
2022/05/23 06:50:01;;;;;;;3.83;2.85;;;;;;;15.71;49.42;98384.65;1703581;84;25719;-57
2022/05/23 06:52:27;;;;;;;6.42;2.95;;;;;;;15.65;49.61;98395.95;1703515;84;25756;-57
2022/05/23 06:54:54;;;;;;;3.08;2.62;;;;;;;15.60;49.29;98385.15;1703389;84;27430;-58
2022/05/23 06:57:20;;;;;;;3.15;2.15;;;;;;;15.81;49.64;98380.75;1703025;84;25803;-60
2022/05/23 06:59:47;;;;;;;2.70;2.30;;;;;;;15.98;49.02;98378.84;1703364;84;25679;-57
2022/05/23 07:02:14;;;;;;;4.58;2.40;;;;;;;15.98;49.02;98378.84;1703086;84;25782;-58
2022/05/23 07:12:57;;;;;;;2.80;2.50;;;;;;;16.83;46.73;98371.25;1703216;84;25686;-57
2022/05/23 07:15:23;;;;;;;3.95;2.80;;;;;;;16.62;47.39;98361.91;1703331;84;25799;-57
2022/05/23 07:17:50;;;;;;;4.53;2.52;;;;;;;16.59;47.59;98357.09;1703704;84;25721;-57
2022/05/23 07:20:17;;;;;;;6.80;2.62;;;;;;;16.82;47.66;98357.20;1701276;84;27469;-58
2022/05/23 07:22:43;;;;;;;7.25;2.77;;;;;;;17.21;47.24;98352.85;1696424;84;25493;-57
2022/05/23 07:25:10;;;;;;;3.08;2.42;;;;;;;17.61;46.76;98357.13;1696353;84;25693;-57
2022/05/23 07:27:39;;;;;;;5.05;2.92;;;;;;;17.77;46.17;98354.26;1695976;84;25689;-57
2022/05/23 07:30:08;;;;;;;4.03;2.35;;;;;;;17.91;44.97;98352.28;1696129;84;25444;-57
2022/05/23 07:32:35;;;;;;;6.37;2.12;;;;;;;18.11;46.18;98355.03;1696477;84;27425;-57
2022/05/23 07:35:03;;;;;;;4.58;2.70;;;;;;;18.55;44.54;98352.87;1696335;84;25638;-58
2022/05/23 07:37:30;;;;;;;5.87;2.55;;;;;;;18.77;44.90;98357.33;1696275;84;25674;-58
2022/05/23 07:39:58;;;;;;;4.55;2.72;;;;;;;19.02;43.88;98354.04;1696040;84;25901;-58
2022/05/23 07:42:24;;;;;;;3.95;2.60;;;;;;;19.04;42.97;98353.89;1696408;84;25422;-59
2022/05/23 07:44:51;;;;;;;4.05;2.25;;;;;;;19.23;42.42;98342.41;1696293;84;27512;-61
2022/05/23 07:47:18;;;;;;;4.12;2.27;;;;;;;19.37;41.25;98345.14;1696437;84;25671;-61
2022/05/23 07:49:47;;;;;;;5.05;2.42;;;;;;;19.18;42.36;98346.34;1696311;84;25459;-57
2022/05/23 07:52:14;;;;;;;2.62;2.17;;;;;;;19.54;41.26;98339.53;1695917;84;25403;-57
2022/05/23 08:03:10;;;;;;;3.70;2.00;;;;;;;20.76;38.68;98328.88;1696110;84;25661;-61
2022/05/23 08:05:36;;;;;;;;;;;;;;;20.61;39.01;98328.02;1698539;84;25483;-60
2022/05/23 08:08:04;;;;;;;3.60;2.25;;;;;;;20.86;39.27;98321.16;1696146;84;25670;-60
2022/05/23 08:10:31;;;;;;;2.77;2.22;;;;;;;21.24;36.70;98330.66;1696517;84;27507;-62
2022/05/23 08:12:59;;;;;;;4.97;2.15;;;;;;;21.29;37.79;98312.75;1696116;84;25683;-60
2022/05/23 08:15:28;;;;;;;3.27;1.90;;;;;;;21.31;38.47;98324.31;1696342;84;25516;-58
2022/05/23 08:17:55;;;;;;;3.87;1.98;;;;;;;21.41;37.25;98310.98;1696311;84;25755;-58
2022/05/23 08:20:22;;;;;;;4.97;2.55;;;;;;;21.71;38.13;98316.59;1697167;84;25653;-58
2022/05/23 08:22:54;;;;;;;2.95;2.17;;;;;;;21.66;36.63;98308.83;1703671;84;28224;-58
2022/05/23 08:25:18;;;;;;;3.30;2.10;;;;;;;21.65;36.84;98307.83;1702256;84;25449;-58
2022/05/23 08:27:45;;;;;;;3.98;2.37;;;;;;;21.68;37.57;98305.02;1703312;84;25626;-58
2022/05/23 08:30:13;;;;;;;3.55;2.35;;;;;;;21.83;37.11;98308.44;1703106;84;25732;-58
2022/05/23 08:32:40;;;;;;;3.02;1.90;;;;;;;21.61;36.56;98301.43;1703489;84;25502;-58
2022/05/23 08:35:08;;;;;;;2.60;2.00;;;;;;;21.72;36.95;98308.41;1703214;84;27374;-59
2022/05/23 08:37:36;;;;;;;2.65;2.10;;;;;;;22.01;34.86;98304.23;1703024;84;25691;-58
2022/05/23 08:40:05;;;;;;;3.70;1.95;;;;;;;21.69;35.83;98302.45;1703275;84;25602;-57
2022/05/23 08:42:51;;;;;;;4.15;1.80;;;;;;;21.88;35.68;98297.67;1703273;84;25688;-57
2022/05/23 08:45:35;;;;;;;3.75;1.82;;;;;;;22.59;35.68;98297.16;1702787;84;25464;-57
2022/05/23 08:48:41;;;;;;;1.90;1.52;;;;;;;22.22;33.87;98296.43;1640479;87;25970;-57
2022/05/23 08:51:25;;;;;;;3.25;1.40;;;;;;;22.21;34.27;98291.25;1652367;85;26159;-56
2022/05/23 08:54:25;;;;;;;2.20;1.30;;;;;;;22.87;33.93;98280.67;1672929;85;25778;-57
2022/05/23 08:56:57;;;;;;;2.67;1.37;;;;;;;23.14;32.18;98288.53;1650369;85;25742;-57
2022/05/23 08:59:31;;;;;;;1.95;1.35;;;;;;;22.81;31.40;98288.70;1665870;84;25711;-60
2022/05/23 09:02:11;;;;;;;2.02;1.42;;;;;;;22.90;32.06;98283.47;1674386;85;27398;-57
2022/05/23 09:04:55;;;;;;;2.67;1.65;;;;;;;22.89;31.94;98273.50;1674584;85;25683;-59
2022/05/23 09:07:44;;;;;;;1.47;1.32;;;;;;;23.36;33.19;98282.19;1673859;85;25688;-60
2022/05/23 09:10:19;;;;;;;6.65;1.60;;;;;;;23.74;31.94;98284.31;1674834;85;25733;-57
2022/05/23 09:12:46;;;;;;;2.45;1.42;;;;;;;23.97;32.55;98271.72;1674715;85;25635;-59
2022/05/23 09:15:12;;;;;;;2.17;1.50;;;;;;;23.90;30.78;98270.39;1675042;85;27875;-60
2022/05/23 09:17:44;;;;;;;2.65;1.40;;;;;;;24.20;31.14;98265.34;1674824;85;25681;-58
2022/05/23 09:20:19;;;;;;;2.70;1.52;;;;;;;24.61;31.45;98263.66;1675171;85;25423;-57
2022/05/23 09:22:55;;;;;;;3.70;1.60;;;;;;;25.08;31.23;98270.06;1671300;85;25707;-59
2022/05/23 09:25:25;;;;;;;3.67;1.45;;;;;;;25.74;30.36;98269.08;1671324;85;25411;-59
2022/05/23 09:28:29;;;;;;;2.52;1.05;;;;;;;26.40;29.26;98268.08;1671393;85;27395;-57
2022/05/23 09:31:09;;;;;;;1.75;1.10;;;;;;;26.23;26.72;98274.22;1671201;85;25713;-58
2022/05/23 09:33:46;;;;;;;3.10;1.20;;;;;;;26.32;26.67;98275.08;1671492;85;25443;-58
2022/05/23 09:36:23;;;;;;;2.62;1.22;;;;;;;26.18;27.45;98270.49;1671423;85;25689;-58
2022/05/23 09:38:59;;;;;;;1.70;1.02;;;;;;;26.06;26.20;98275.53;1671200;85;25438;-58
2022/05/23 09:50:09;;;;;;;1.87;1.32;;;;;;;27.51;26.75;98261.67;1670991;85;25507;-58
2022/05/23 09:52:43;;;;;;;1.70;1.30;;;;;;;27.55;25.18;98266.62;1671335;85;25685;-59
2022/05/23 09:55:16;;;;;;;1.65;1.55;;;;;;;27.54;25.14;98260.80;1670189;85;27371;-57
2022/05/23 09:57:59;;;;;;;2.10;1.65;;;;;;;27.31;25.54;98251.30;1671040;85;25742;-57
2022/05/23 10:00:33;;;;;;;2.27;1.30;;;;;;;27.56;26.13;98255.53;1667039;85;25455;-57
2022/05/23 10:03:13;;;;;;;1.77;1.40;;;;;;;27.12;25.93;98252.96;1670867;85;25689;-58
2022/05/23 10:05:50;;;;;;;2.12;1.10;;;;;;;27.06;25.15;98253.47;1671406;85;25496;-59
2022/05/23 10:08:40;;;;;;;2.27;1.37;;;;;;;26.59;26.22;98247.44;1670498;85;25915;-57
2022/05/23 10:11:24;;;;;;;2.45;1.20;;;;;;;26.89;26.13;98252.64;1670458;85;25835;-57
2022/05/23 10:13:55;;;;;;;2.90;1.22;;;;;;;27.39;25.29;98247.70;1663300;85;25426;-58
2022/05/23 10:16:51;;;;;;;1.60;1.30;;;;;;;27.15;25.05;98240.23;1671268;85;25792;-57
2022/05/23 10:19:34;;;;;;;1.50;1.37;;;;;;;26.45;25.53;98240.73;1665044;85;26296;-58
2022/05/23 10:22:23;;;;;;;3.30;1.27;;;;;;;26.41;26.17;98240.19;1663030;85;27496;-57
2022/05/23 10:25:09;;;;;;;3.22;1.85;;;;;;;26.63;25.55;98241.15;1665099;86;43321;-58
2022/05/23 10:27:58;;;;;;;1.98;1.70;;;;;;;26.85;25.86;98235.67;1665140;86;25636;-57
2022/05/23 10:30:30;;;;;;;;;;;;;;;27.28;25.86;98229.67;1611743;89;25941;-57
2022/05/23 10:33:08;;;;;;;2.47;1.40;;;;;;;27.93;25.07;98229.48;1609636;89;25761;-58
2022/05/23 10:36:06;;;;;;;2.40;1.77;;;;;;;28.07;24.64;98226.09;1609059;89;28572;-57
2022/05/23 10:45:00;;;;;;;6.20;1.50;;;;;;;27.80;25.25;98231.42;1609047;89;25496;-58
2022/05/23 10:47:58;;;;;;;2.67;1.40;;;;;;;28.58;25.75;98206.99;1609524;89;25672;-58
2022/05/23 10:50:30;;;;;;;2.98;1.30;;;;;;;28.61;25.10;98211.73;1608202;88;27508;-59
2022/05/23 10:53:37;;;;;;;1.17;1.05;;;;;;;28.84;24.59;98207.79;1594368;89;25886;-58
2022/05/23 10:56:40;;;;;;;1.45;1.20;;;;;;;28.17;23.27;98212.94;1609543;89;25511;-57
2022/05/23 10:59:35;;;;;;;1.10;1.00;;;;;;;28.01;24.51;98201.89;1583760;90;27877;-57
2022/05/23 11:02:34;;;;;;;1.42;1.30;;;;;;;27.90;23.06;98193.77;1583954;90;26292;-57
2022/05/23 11:05:32;;;;;;;2.17;1.23;;;;;;;27.89;23.62;98187.95;1584280;90;27523;-58
2022/05/23 11:08:13;;;;;;;1.67;1.32;;;;;;;27.32;23.68;98188.20;1614514;88;25763;-57
2022/05/23 11:10:54;;;;;;;2.65;1.30;;;;;;;26.92;24.50;98189.13;1615459;88;25802;-56
2022/05/23 11:13:58;;;;;;;3.15;1.40;;;;;;;26.79;24.16;98188.39;1612271;88;25914;-57
2022/05/23 11:16:53;;;;;;;4.70;1.20;;;;;;;27.27;24.29;98189.52;1615523;88;25656;-57
2022/05/23 11:19:43;;;;;;;1.32;1.10;;;;;;;27.31;24.48;98186.60;1615276;88;29589;-57
2022/05/23 11:22:23;;;;;;;1.70;1.35;;;;;;;27.09;24.81;98190.56;1611478;88;25507;-58
2022/05/23 11:25:32;;;;;;;1.20;1.10;;;;;;;27.32;23.88;98175.55;1606647;89;25556;-57
2022/05/23 11:34:26;;;;;;;3.00;1.20;;;;;;;27.15;23.33;98173.34;1656040;86;25690;-57
2022/05/23 11:39:56;;;;;;;1.52;1.27;;;;;;;27.95;24.12;98161.47;1667944;86;25654;-57
2022/05/23 11:42:31;;;;;;;2.62;1.30;;;;;;;28.20;23.69;98155.71;1667855;86;25475;-57
2022/05/23 11:47:57;;;;;;;1.65;1.35;;;;;;;28.29;22.85;98153.03;1667787;86;25679;-58
2022/05/23 11:50:33;;;;;;;2.85;1.25;;;;;;;28.02;23.02;98150.59;1667725;86;25542;-57
2022/05/23 11:53:26;;;;;;;2.62;2.00;;;;;;;27.98;24.02;98142.88;1667870;86;25463;-57
2022/05/23 11:55:57;;;;;;;2.20;1.10;;;;;;;28.00;23.55;98141.19;1667772;86;25751;-59
2022/05/23 11:58:50;;;;;;;1.45;1.30;;;;;;;27.16;23.66;98142.58;1667680;86;25507;-57
2022/05/23 12:01:25;;;;;;;1.85;1.00;;;;;;;26.53;24.50;98139.00;1667744;86;27423;-56
2022/05/23 12:04:02;;;;;;;1.87;1.67;;;;;;;26.42;24.54;98132.20;1667458;86;25708;-56
2022/05/23 12:06:34;;;;;;;1.35;1.12;;;;;;;26.43;24.45;98130.20;1667506;86;25684;-57
2022/05/23 12:09:17;;;;;;;1.22;1.10;;;;;;;26.46;24.61;98132.74;1667928;86;25781;-57
2022/05/23 12:11:49;;;;;;;1.27;1.17;;;;;;;26.56;24.63;98121.27;1667525;86;26095;-57
2022/05/23 12:14:36;;;;;;;1.70;1.20;;;;;;;26.89;24.99;98121.13;1667877;86;27418;-57
2022/05/23 12:17:22;;;;;;;1.90;1.20;;;;;;;27.14;24.28;98111.31;1665552;86;25976;-57
2022/05/23 12:19:54;;;;;;;1.60;1.40;;;;;;;27.24;23.90;98110.23;1666087;86;25466;-56
2022/05/23 12:22:36;;;;;;;3.20;1.47;;;;;;;27.26;23.52;98104.95;1662358;85;25948;-56
2022/05/23 12:25:17;;;;;;;1.10;1.00;;;;;;;27.33;24.02;98105.39;1655534;86;25517;-57
2022/05/23 12:27:52;;;;;;;1.65;1.20;;;;;;;27.24;23.50;98094.77;1655625;86;28292;-57
2022/05/23 12:30:24;;;;;;;9.28;1.95;;;;;;;27.39;24.27;98097.99;1655376;86;25441;-56
2022/05/23 12:33:01;;;;;;;1.52;1.00;;;;;;;27.21;23.65;98093.45;1631682;87;25689;-57
2022/05/23 12:35:39;;;;;;;1.52;1.20;;;;;;;27.28;23.74;98088.43;1655241;86;25964;-57
2022/05/23 12:38:36;;;;;;;3.75;1.30;;;;;;;27.38;24.29;98084.37;1655726;86;25451;-57
2022/05/23 12:41:11;;;;;;;2.15;1.40;;;;;;;27.32;23.80;98079.91;1655436;86;27427;-57
2022/05/23 12:44:13;;;;;;;2.20;1.55;;;;;;;26.82;24.73;98089.75;1655775;86;25593;-57
2022/05/23 12:47:25;;;;;;;10.30;1.90;;;;;;;26.58;25.36;98088.52;1654644;86;25784;-57
2022/05/23 12:50:12;;;;;;;2.85;1.30;;;;;;;26.68;24.96;98086.06;1642249;86;25847;-56
2022/05/23 12:53:02;;;;;;;3.00;1.30;;;;;;;26.48;24.83;98088.94;1655386;86;25685;-57
2022/05/23 12:55:53;;;;;;;;;;;;;;;26.43;25.01;98078.23;1658170;86;27486;-57
2022/05/23 12:58:28;;;;;;;1.32;1.20;;;;;;;26.23;25.11;98083.86;1658798;84;25985;-58
2022/05/23 13:01:10;;;;;;;3.95;1.60;;;;;;;26.17;24.94;98080.16;1659690;86;25672;-57
2022/05/23 13:03:57;;;;;;;2.52;1.20;;;;;;;26.34;25.18;98074.63;1660372;86;25749;-56
2022/05/23 13:06:29;;;;;;;2.65;1.50;;;;;;;26.43;25.19;98073.39;1660199;86;25728;-58
2022/05/23 13:09:22;;;;;;;1.62;1.20;;;;;;;26.27;24.83;98067.72;1660681;86;29798;-56
2022/05/23 13:11:53;;;;;;;2.12;1.40;;;;;;;25.36;25.16;98060.51;1660343;86;25863;-57
2022/05/23 13:14:20;;;;;;;1.95;1.45;;;;;;;24.79;26.97;98064.49;1660132;86;25628;-57
2022/05/23 13:17:28;;;;;;;3.42;1.65;;;;;;;24.51;26.54;98065.92;1660093;86;27818;-57